Princeton, Michigan
Current Conditions -  °F | °C
As of 2:48 PM on Monday 22 Dec 2014 (Local Time) from KSAW Reporting Station
Haze Haze  
Wind Chill: 23°   Ceiling: 600
Heat Index: 32°   Visibility: 2.5mi
Dew Point: 30°   Wind: 12mph
Humidity: 93%   Direction: 160°SSE
Pressure: 29.84"   Gusts: NA
Location:  46.2832°N, 87.4701°W
Report Text: KSAW 221948Z 16010KT 2 1/2SM BR OVC006 00/M01 A2984
Loading
Personal Weather Stations






























Interactive Weather Map New forecast layout! Learn more

10-Day Weather Forecast

Advertisements
Track Severe Weather on mobile